This is the latest recevied weather packets stored in our database for station/object KF0TNT. If no packets are shown the sender has not sent any weather packets the latest 10 day(s).
| Time | Temp. | Humidity | Pressure | Rain* | Wind** | Luminosity | Snow |
|---|---|---|---|---|---|---|---|
| 1778019358 | 1.11° C | 96% | 1011.9 hPa | 0 mm | - | 64 W/m² | - |
| 1778019054 | 1.11° C | 96% | 1012 hPa | 0 mm | - | 102 W/m² | - |
| 1778018751 | 1.11° C | 97% | 1011.9 hPa | 0 mm | - | 123 W/m² | - |
| 1778018449 | 1.11° C | 97% | 1012.2 hPa | 0 mm | - | 79 W/m² | - |
| 1778018147 | 1.11° C | 96% | 1011.9 hPa | 0 mm | - | 77 W/m² | - |
| 1778017844 | 1.11° C | 96% | 1012.3 hPa | 0 mm | - | 86 W/m² | - |
| 1778017542 | 1.11° C | 96% | 1012.3 hPa | 0 mm | - | 96 W/m² | - |
| 1778017239 | 1.11° C | 96% | 1012.3 hPa | 0 mm | - | 107 W/m² | - |
| 1778016937 | 1.11° C | 96% | 1012.5 hPa | 0.51 mm | - | 114 W/m² | - |
| 1778016633 | 1.11° C | 96% | 1012.7 hPa | 0.51 mm | - | 84 W/m² | - |
| 1778016329 | 1.11° C | 96% | 1012.4 hPa | 0 mm | - | 108 W/m² | - |
| 1778016027 | 1.11° C | 95% | 1012.5 hPa | 0.51 mm | - | 77 W/m² | - |
| 1778015724 | 1.67° C | 95% | 1012.9 hPa | 0.51 mm | - | 67 W/m² | - |
| 1778015420 | 1.67° C | 95% | 1012.7 hPa | 0 mm | - | 65 W/m² | - |
| 1778015117 | 1.67° C | 96% | 1012.7 hPa | 0.51 mm | - | 92 W/m² | - |
| 1778014814 | 1.67° C | 96% | 1012.7 hPa | 0.51 mm | - | 125 W/m² | - |
| 1778014512 | 1.67° C | 96% | 1013.2 hPa | 0 mm | - | 91 W/m² | - |
| 1778014209 | 1.67° C | 96% | 1012.8 hPa | 0.51 mm | - | 140 W/m² | - |
| 1778013907 | 1.67° C | 96% | 1012.9 hPa | 0.51 mm | - | 148 W/m² | - |
| 1778013604 | 1.67° C | 95% | 1013.2 hPa | 0 mm | - | 119 W/m² | - |
| 1778013300 | 1.67° C | 95% | 1013 hPa | 0 mm | - | 140 W/m² | - |
| 1778012996 | 1.67° C | 96% | 1013.2 hPa | 0 mm | - | 139 W/m² | - |
| 1778012693 | 1.67° C | 96% | 1013.3 hPa | 0 mm | - | 140 W/m² | - |
| 1778012389 | 1.67° C | 95% | 1013 hPa | 0 mm | - | 193 W/m² | - |
| 1778012086 | 1.67° C | 95% | 1013 hPa | 0.51 mm | - | 141 W/m² | - |
* Rain latest hour (hover to see other rain measurements)
** Current wind speed in m/s (hover to see current wind gust speed)